sensor_id;sensor_type;location;lat;lon;timestamp;temperature;humidity
12726;DHT22;6427;49.754;6.106;2024-01-27T00:02:02;2.10;99.90
12726;DHT22;6427;49.754;6.106;2024-01-27T00:04:30;2.10;99.90
12726;DHT22;6427;49.754;6.106;2024-01-27T00:06:57;2.00;99.90
12726;DHT22;6427;49.754;6.106;2024-01-27T00:09:26;1.90;99.90
12726;DHT22;6427;49.754;6.106;2024-01-27T00:11:53;1.90;99.90
12726;DHT22;6427;49.754;6.106;2024-01-27T00:14:22;1.80;99.90
12726;DHT22;6427;49.754;6.106;2024-01-27T00:16:49;1.80;99.90
12726;DHT22;6427;49.754;6.106;2024-01-27T00:19:17;2.10;99.90
12726;DHT22;6427;49.754;6.106;2024-01-27T00:21:45;2.00;99.90
12726;DHT22;6427;49.754;6.106;2024-01-27T00:24:13;1.90;99.90
12726;DHT22;6427;49.754;6.106;2024-01-27T00:26:40;1.80;99.90
12726;DHT22;6427;49.754;6.106;2024-01-27T00:29:08;1.70;99.90
12726;DHT22;6427;49.754;6.106;2024-01-27T00:31:36;1.70;99.90
12726;DHT22;6427;49.754;6.106;2024-01-27T00:34:04;1.90;99.90
12726;DHT22;6427;49.754;6.106;2024-01-27T00:36:32;1.80;99.90
12726;DHT22;6427;49.754;6.106;2024-01-27T00:39:00;1.70;99.90
12726;DHT22;6427;49.754;6.106;2024-01-27T00:41:28;1.70;99.90
12726;DHT22;6427;49.754;6.106;2024-01-27T00:43:55;1.60;99.90
12726;DHT22;6427;49.754;6.106;2024-01-27T00:46:23;1.80;99.90
12726;DHT22;6427;49.754;6.106;2024-01-27T00:48:50;1.70;99.90
12726;DHT22;6427;49.754;6.106;2024-01-27T00:51:18;1.60;99.90
12726;DHT22;6427;49.754;6.106;2024-01-27T00:53:45;1.80;99.90
12726;DHT22;6427;49.754;6.106;2024-01-27T00:56:13;1.70;99.90
12726;DHT22;6427;49.754;6.106;2024-01-27T00:58:41;1.60;99.90
12726;DHT22;6427;49.754;6.106;2024-01-27T01:01:09;1.40;99.90
12726;DHT22;6427;49.754;6.106;2024-01-27T01:03:37;1.40;99.90
12726;DHT22;6427;49.754;6.106;2024-01-27T01:06:04;1.40;99.90
12726;DHT22;6427;49.754;6.106;2024-01-27T01:08:32;1.30;99.90
12726;DHT22;6427;49.754;6.106;2024-01-27T01:10:59;1.20;99.90
12726;DHT22;6427;49.754;6.106;2024-01-27T01:13:27;1.20;99.90
12726;DHT22;6427;49.754;6.106;2024-01-27T01:15:55;1.10;99.90
12726;DHT22;6427;49.754;6.106;2024-01-27T01:18:22;1.10;99.90
12726;DHT22;6427;49.754;6.106;2024-01-27T01:20:50;1.00;99.90
12726;DHT22;6427;49.754;6.106;2024-01-27T01:23:17;1.30;99.90
12726;DHT22;6427;49.754;6.106;2024-01-27T01:25:45;1.30;99.90
12726;DHT22;6427;49.754;6.106;2024-01-27T01:28:13;1.10;99.90
12726;DHT22;6427;49.754;6.106;2024-01-27T01:30:41;1.10;99.90
12726;DHT22;6427;49.754;6.106;2024-01-27T01:33:10;1.10;99.90
12726;DHT22;6427;49.754;6.106;2024-01-27T01:35:36;1.30;99.90
12726;DHT22;6427;49.754;6.106;2024-01-27T01:38:04;1.30;99.90
12726;DHT22;6427;49.754;6.106;2024-01-27T01:40:31;1.20;99.90
12726;DHT22;6427;49.754;6.106;2024-01-27T01:43:00;1.10;99.90
12726;DHT22;6427;49.754;6.106;2024-01-27T01:45:27;1.10;99.90
12726;DHT22;6427;49.754;6.106;2024-01-27T01:47:55;1.10;99.90
12726;DHT22;6427;49.754;6.106;2024-01-27T01:50:22;1.00;99.90
12726;DHT22;6427;49.754;6.106;2024-01-27T01:52:50;1.00;99.90
12726;DHT22;6427;49.754;6.106;2024-01-27T01:55:17;1.00;99.90
12726;DHT22;6427;49.754;6.106;2024-01-27T01:57:46;0.90;99.90
12726;DHT22;6427;49.754;6.106;2024-01-27T02:00:14;0.90;99.90
12726;DHT22;6427;49.754;6.106;2024-01-27T02:02:44;0.90;99.90
12726;DHT22;6427;49.754;6.106;2024-01-27T02:05:14;0.90;99.90
12726;DHT22;6427;49.754;6.106;2024-01-27T02:07:42;1.20;99.90
12726;DHT22;6427;49.754;6.106;2024-01-27T02:10:13;1.10;99.90
12726;DHT22;6427;49.754;6.106;2024-01-27T02:12:41;0.90;99.90
12726;DHT22;6427;49.754;6.106;2024-01-27T02:15:11;0.90;99.90
12726;DHT22;6427;49.754;6.106;2024-01-27T02:17:41;0.90;99.90
12726;DHT22;6427;49.754;6.106;2024-01-27T02:20:09;0.80;99.90
12726;DHT22;6427;49.754;6.106;2024-01-27T02:22:36;0.80;99.90
12726;DHT22;6427;49.754;6.106;2024-01-27T02:25:04;0.70;99.90
12726;DHT22;6427;49.754;6.106;2024-01-27T02:27:31;0.70;99.90
12726;DHT22;6427;49.754;6.106;2024-01-27T02:30:00;0.90;99.90
12726;DHT22;6427;49.754;6.106;2024-01-27T02:32:27;0.90;99.90
12726;DHT22;6427;49.754;6.106;2024-01-27T02:34:56;0.80;99.90
12726;DHT22;6427;49.754;6.106;2024-01-27T02:37:23;0.80;99.90
12726;DHT22;6427;49.754;6.106;2024-01-27T02:39:52;1.00;99.90
12726;DHT22;6427;49.754;6.106;2024-01-27T02:42:20;0.90;99.90
12726;DHT22;6427;49.754;6.106;2024-01-27T02:44:47;0.90;99.90
12726;DHT22;6427;49.754;6.106;2024-01-27T02:47:16;1.00;99.90
12726;DHT22;6427;49.754;6.106;2024-01-27T02:49:43;1.00;99.90
12726;DHT22;6427;49.754;6.106;2024-01-27T02:52:12;0.80;99.90
12726;DHT22;6427;49.754;6.106;2024-01-27T02:54:39;0.80;99.90
12726;DHT22;6427;49.754;6.106;2024-01-27T02:57:07;0.70;99.90
12726;DHT22;6427;49.754;6.106;2024-01-27T02:59:35;0.90;99.90
12726;DHT22;6427;49.754;6.106;2024-01-27T03:02:02;0.80;99.90
12726;DHT22;6427;49.754;6.106;2024-01-27T03:04:31;0.60;99.90
12726;DHT22;6427;49.754;6.106;2024-01-27T03:06:58;0.60;99.90
12726;DHT22;6427;49.754;6.106;2024-01-27T03:09:26;0.50;99.90
12726;DHT22;6427;49.754;6.106;2024-01-27T03:11:53;0.50;99.90
12726;DHT22;6427;49.754;6.106;2024-01-27T03:14:21;0.40;99.90
12726;DHT22;6427;49.754;6.106;2024-01-27T03:16:48;0.40;99.90
12726;DHT22;6427;49.754;6.106;2024-01-27T03:19:16;0.30;99.90
12726;DHT22;6427;49.754;6.106;2024-01-27T03:24:20;0.30;99.90
12726;DHT22;6427;49.754;6.106;2024-01-27T03:26:48;0.30;99.90
12726;DHT22;6427;49.754;6.106;2024-01-27T03:29:15;0.20;99.90
12726;DHT22;6427;49.754;6.106;2024-01-27T03:31:43;0.40;99.90
12726;DHT22;6427;49.754;6.106;2024-01-27T03:34:11;0.40;99.90
12726;DHT22;6427;49.754;6.106;2024-01-27T03:36:39;0.60;99.90
12726;DHT22;6427;49.754;6.106;2024-01-27T03:39:07;0.60;99.90
12726;DHT22;6427;49.754;6.106;2024-01-27T03:41:35;0.60;99.90
12726;DHT22;6427;49.754;6.106;2024-01-27T03:44:02;0.50;99.90
12726;DHT22;6427;49.754;6.106;2024-01-27T03:46:30;0.40;99.90
12726;DHT22;6427;49.754;6.106;2024-01-27T03:48:57;0.40;99.90
12726;DHT22;6427;49.754;6.106;2024-01-27T03:51:25;0.30;99.90
12726;DHT22;6427;49.754;6.106;2024-01-27T03:53:53;0.30;99.90
12726;DHT22;6427;49.754;6.106;2024-01-27T03:56:20;0.30;99.90
12726;DHT22;6427;49.754;6.106;2024-01-27T03:58:48;0.20;99.90
12726;DHT22;6427;49.754;6.106;2024-01-27T04:01:15;0.20;99.90
12726;DHT22;6427;49.754;6.106;2024-01-27T04:03:43;0.50;99.90
12726;DHT22;6427;49.754;6.106;2024-01-27T04:06:11;0.30;99.90
12726;DHT22;6427;49.754;6.106;2024-01-27T04:08:39;0.30;99.90
12726;DHT22;6427;49.754;6.106;2024-01-27T04:11:06;0.30;99.90
12726;DHT22;6427;49.754;6.106;2024-01-27T04:13:34;0.20;99.90
12726;DHT22;6427;49.754;6.106;2024-01-27T04:16:02;0.20;99.90
12726;DHT22;6427;49.754;6.106;2024-01-27T04:18:30;0.10;99.90
12726;DHT22;6427;49.754;6.106;2024-01-27T04:20:58;0.10;99.90
12726;DHT22;6427;49.754;6.106;2024-01-27T04:23:26;0.10;99.90
12726;DHT22;6427;49.754;6.106;2024-01-27T04:25:54;0.00;99.90
12726;DHT22;6427;49.754;6.106;2024-01-27T04:28:22;0.00;99.90
12726;DHT22;6427;49.754;6.106;2024-01-27T04:30:49;0.00;99.90
12726;DHT22;6427;49.754;6.106;2024-01-27T04:33:17;0.00;99.90
12726;DHT22;6427;49.754;6.106;2024-01-27T04:35:45;0.00;99.90
12726;DHT22;6427;49.754;6.106;2024-01-27T04:38:12;0.00;99.90
12726;DHT22;6427;49.754;6.106;2024-01-27T04:40:41;0.00;99.90
12726;DHT22;6427;49.754;6.106;2024-01-27T04:43:08;0.00;99.90
12726;DHT22;6427;49.754;6.106;2024-01-27T04:45:37;0.00;99.90
12726;DHT22;6427;49.754;6.106;2024-01-27T04:48:04;0.00;99.90
12726;DHT22;6427;49.754;6.106;2024-01-27T04:50:32;0.00;99.90
12726;DHT22;6427;49.754;6.106;2024-01-27T04:53:00;0.00;99.90
12726;DHT22;6427;49.754;6.106;2024-01-27T04:55:27;0.00;99.90
12726;DHT22;6427;49.754;6.106;2024-01-27T04:57:55;0.00;99.90
12726;DHT22;6427;49.754;6.106;2024-01-27T05:00:22;0.00;99.90
12726;DHT22;6427;49.754;6.106;2024-01-27T05:02:51;0.00;99.90
12726;DHT22;6427;49.754;6.106;2024-01-27T05:05:18;0.00;99.90
12726;DHT22;6427;49.754;6.106;2024-01-27T05:07:46;0.30;99.90
12726;DHT22;6427;49.754;6.106;2024-01-27T05:10:15;0.20;99.90
12726;DHT22;6427;49.754;6.106;2024-01-27T05:12:42;0.20;99.90
12726;DHT22;6427;49.754;6.106;2024-01-27T05:15:11;0.30;99.90
12726;DHT22;6427;49.754;6.106;2024-01-27T05:17:39;0.20;99.90
12726;DHT22;6427;49.754;6.106;2024-01-27T05:20:07;0.20;99.90
12726;DHT22;6427;49.754;6.106;2024-01-27T05:22:34;0.10;99.90
12726;DHT22;6427;49.754;6.106;2024-01-27T05:25:02;0.00;99.90
12726;DHT22;6427;49.754;6.106;2024-01-27T05:27:30;0.10;99.90
12726;DHT22;6427;49.754;6.106;2024-01-27T05:29:58;0.10;99.90
12726;DHT22;6427;49.754;6.106;2024-01-27T05:32:26;0.30;99.90
12726;DHT22;6427;49.754;6.106;2024-01-27T05:34:54;0.20;99.90
12726;DHT22;6427;49.754;6.106;2024-01-27T05:37:22;0.50;99.90
12726;DHT22;6427;49.754;6.106;2024-01-27T05:39:49;0.70;99.90
12726;DHT22;6427;49.754;6.106;2024-01-27T05:42:17;0.60;99.90
12726;DHT22;6427;49.754;6.106;2024-01-27T05:44:44;0.40;99.90
12726;DHT22;6427;49.754;6.106;2024-01-27T05:47:13;0.50;99.90
12726;DHT22;6427;49.754;6.106;2024-01-27T05:49:41;0.50;99.90
12726;DHT22;6427;49.754;6.106;2024-01-27T05:52:08;0.40;99.90
12726;DHT22;6427;49.754;6.106;2024-01-27T05:54:36;0.60;99.90
12726;DHT22;6427;49.754;6.106;2024-01-27T05:57:03;0.50;99.90
12726;DHT22;6427;49.754;6.106;2024-01-27T05:59:31;0.30;99.90
12726;DHT22;6427;49.754;6.106;2024-01-27T06:01:58;0.20;99.90
12726;DHT22;6427;49.754;6.106;2024-01-27T06:04:26;0.10;99.90
12726;DHT22;6427;49.754;6.106;2024-01-27T06:06:54;0.00;99.90
12726;DHT22;6427;49.754;6.106;2024-01-27T06:09:21;-0.10;99.90
12726;DHT22;6427;49.754;6.106;2024-01-27T06:11:49;-0.10;99.90
12726;DHT22;6427;49.754;6.106;2024-01-27T06:14:16;-0.10;99.90
12726;DHT22;6427;49.754;6.106;2024-01-27T06:16:44;-0.10;99.90
12726;DHT22;6427;49.754;6.106;2024-01-27T06:19:12;-0.10;99.90
12726;DHT22;6427;49.754;6.106;2024-01-27T06:21:39;-0.10;99.90
12726;DHT22;6427;49.754;6.106;2024-01-27T06:24:07;0.00;99.90
12726;DHT22;6427;49.754;6.106;2024-01-27T06:26:35;-0.10;99.90
12726;DHT22;6427;49.754;6.106;2024-01-27T06:29:03;-0.10;99.90
12726;DHT22;6427;49.754;6.106;2024-01-27T06:31:30;-0.10;99.90
12726;DHT22;6427;49.754;6.106;2024-01-27T06:33:58;0.20;99.90
12726;DHT22;6427;49.754;6.106;2024-01-27T06:36:25;0.50;99.90
12726;DHT22;6427;49.754;6.106;2024-01-27T06:38:54;0.50;99.90
12726;DHT22;6427;49.754;6.106;2024-01-27T06:41:21;0.60;99.90
12726;DHT22;6427;49.754;6.106;2024-01-27T06:43:50;0.60;99.90
12726;DHT22;6427;49.754;6.106;2024-01-27T06:46:18;0.50;99.90
12726;DHT22;6427;49.754;6.106;2024-01-27T06:48:46;0.40;99.90
12726;DHT22;6427;49.754;6.106;2024-01-27T06:51:13;0.60;99.90
12726;DHT22;6427;49.754;6.106;2024-01-27T06:53:41;0.50;99.90
12726;DHT22;6427;49.754;6.106;2024-01-27T06:56:08;0.40;99.90
12726;DHT22;6427;49.754;6.106;2024-01-27T06:58:36;0.30;99.90
12726;DHT22;6427;49.754;6.106;2024-01-27T07:01:06;0.20;99.90
12726;DHT22;6427;49.754;6.106;2024-01-27T07:03:32;0.20;99.90
12726;DHT22;6427;49.754;6.106;2024-01-27T07:05:59;0.20;99.90
12726;DHT22;6427;49.754;6.106;2024-01-27T07:08:30;0.30;99.90
12726;DHT22;6427;49.754;6.106;2024-01-27T07:10:58;0.30;99.90
12726;DHT22;6427;49.754;6.106;2024-01-27T07:13:25;0.50;99.90
12726;DHT22;6427;49.754;6.106;2024-01-27T07:15:53;0.40;99.90
12726;DHT22;6427;49.754;6.106;2024-01-27T07:18:21;0.30;99.90
12726;DHT22;6427;49.754;6.106;2024-01-27T07:20:49;0.10;99.90
12726;DHT22;6427;49.754;6.106;2024-01-27T07:23:17;0.00;99.90
12726;DHT22;6427;49.754;6.106;2024-01-27T07:25:45;0.00;99.90
12726;DHT22;6427;49.754;6.106;2024-01-27T07:28:13;0.20;99.90
12726;DHT22;6427;49.754;6.106;2024-01-27T07:30:42;0.20;99.90
12726;DHT22;6427;49.754;6.106;2024-01-27T07:33:09;0.20;99.90
12726;DHT22;6427;49.754;6.106;2024-01-27T07:35:37;0.10;99.90
12726;DHT22;6427;49.754;6.106;2024-01-27T07:38:04;0.10;99.90
12726;DHT22;6427;49.754;6.106;2024-01-27T07:40:32;0.10;99.90
12726;DHT22;6427;49.754;6.106;2024-01-27T07:43:00;0.00;99.90
12726;DHT22;6427;49.754;6.106;2024-01-27T07:45:28;0.00;99.90
12726;DHT22;6427;49.754;6.106;2024-01-27T07:47:56;0.00;99.90
12726;DHT22;6427;49.754;6.106;2024-01-27T07:50:24;0.30;99.90
12726;DHT22;6427;49.754;6.106;2024-01-27T07:52:52;0.20;99.90
12726;DHT22;6427;49.754;6.106;2024-01-27T07:55:20;0.20;99.90
12726;DHT22;6427;49.754;6.106;2024-01-27T07:57:47;0.20;99.90
12726;DHT22;6427;49.754;6.106;2024-01-27T08:00:15;0.20;99.90
12726;DHT22;6427;49.754;6.106;2024-01-27T08:02:43;0.50;99.90
12726;DHT22;6427;49.754;6.106;2024-01-27T08:05:10;0.70;99.90
12726;DHT22;6427;49.754;6.106;2024-01-27T08:07:39;0.80;99.90
12726;DHT22;6427;49.754;6.106;2024-01-27T08:10:06;0.80;99.90
12726;DHT22;6427;49.754;6.106;2024-01-27T08:12:34;0.60;99.90
12726;DHT22;6427;49.754;6.106;2024-01-27T08:15:01;0.50;99.90
12726;DHT22;6427;49.754;6.106;2024-01-27T08:17:29;0.40;99.90
12726;DHT22;6427;49.754;6.106;2024-01-27T08:19:57;0.60;99.90
12726;DHT22;6427;49.754;6.106;2024-01-27T08:22:24;0.60;99.90
12726;DHT22;6427;49.754;6.106;2024-01-27T08:24:52;0.50;99.90
12726;DHT22;6427;49.754;6.106;2024-01-27T08:27:19;0.40;99.90
12726;DHT22;6427;49.754;6.106;2024-01-27T08:29:47;0.40;99.90
12726;DHT22;6427;49.754;6.106;2024-01-27T08:32:15;0.40;99.90
12726;DHT22;6427;49.754;6.106;2024-01-27T08:34:43;0.40;99.90
12726;DHT22;6427;49.754;6.106;2024-01-27T08:37:20;0.40;99.90
12726;DHT22;6427;49.754;6.106;2024-01-27T08:39:47;0.40;99.90
12726;DHT22;6427;49.754;6.106;2024-01-27T08:42:16;0.60;99.90
12726;DHT22;6427;49.754;6.106;2024-01-27T08:44:44;0.50;99.90
12726;DHT22;6427;49.754;6.106;2024-01-27T08:47:12;0.50;99.90
12726;DHT22;6427;49.754;6.106;2024-01-27T08:49:40;0.60;99.90
12726;DHT22;6427;49.754;6.106;2024-01-27T08:52:08;0.60;99.90
12726;DHT22;6427;49.754;6.106;2024-01-27T08:54:36;0.40;99.90
12726;DHT22;6427;49.754;6.106;2024-01-27T08:57:04;0.40;99.90
12726;DHT22;6427;49.754;6.106;2024-01-27T08:59:31;0.30;99.90
12726;DHT22;6427;49.754;6.106;2024-01-27T09:01:59;0.30;99.90
12726;DHT22;6427;49.754;6.106;2024-01-27T09:04:26;0.20;99.90
12726;DHT22;6427;49.754;6.106;2024-01-27T09:06:54;0.20;99.90
12726;DHT22;6427;49.754;6.106;2024-01-27T09:09:21;0.40;99.90
12726;DHT22;6427;49.754;6.106;2024-01-27T09:11:49;0.40;99.90
12726;DHT22;6427;49.754;6.106;2024-01-27T09:14:17;0.30;99.90
12726;DHT22;6427;49.754;6.106;2024-01-27T09:16:45;0.20;99.90
12726;DHT22;6427;49.754;6.106;2024-01-27T09:19:13;0.50;99.90
12726;DHT22;6427;49.754;6.106;2024-01-27T09:21:41;0.50;99.90
12726;DHT22;6427;49.754;6.106;2024-01-27T09:24:09;0.50;99.90
12726;DHT22;6427;49.754;6.106;2024-01-27T09:26:36;0.40;99.90
12726;DHT22;6427;49.754;6.106;2024-01-27T09:29:05;0.70;99.90
12726;DHT22;6427;49.754;6.106;2024-01-27T09:31:32;0.70;99.90
12726;DHT22;6427;49.754;6.106;2024-01-27T09:34:01;0.70;99.90
12726;DHT22;6427;49.754;6.106;2024-01-27T09:36:28;0.70;99.90
12726;DHT22;6427;49.754;6.106;2024-01-27T09:38:56;0.60;99.90
12726;DHT22;6427;49.754;6.106;2024-01-27T09:41:23;0.60;99.90
12726;DHT22;6427;49.754;6.106;2024-01-27T09:43:51;0.50;99.90
12726;DHT22;6427;49.754;6.106;2024-01-27T09:46:19;0.50;99.90
12726;DHT22;6427;49.754;6.106;2024-01-27T09:48:47;0.50;99.90
12726;DHT22;6427;49.754;6.106;2024-01-27T09:51:15;0.50;99.90
12726;DHT22;6427;49.754;6.106;2024-01-27T09:53:43;0.50;99.90
12726;DHT22;6427;49.754;6.106;2024-01-27T09:56:12;0.60;99.90
12726;DHT22;6427;49.754;6.106;2024-01-27T09:58:40;0.60;99.90
12726;DHT22;6427;49.754;6.106;2024-01-27T10:01:07;0.60;99.90
12726;DHT22;6427;49.754;6.106;2024-01-27T10:03:35;0.70;99.90
12726;DHT22;6427;49.754;6.106;2024-01-27T10:06:02;1.00;99.90
12726;DHT22;6427;49.754;6.106;2024-01-27T10:08:30;1.00;99.90
12726;DHT22;6427;49.754;6.106;2024-01-27T10:10:58;1.10;99.90
12726;DHT22;6427;49.754;6.106;2024-01-27T10:13:26;1.10;99.90
12726;DHT22;6427;49.754;6.106;2024-01-27T10:16:06;1.10;99.90
12726;DHT22;6427;49.754;6.106;2024-01-27T10:18:33;1.20;99.90
12726;DHT22;6427;49.754;6.106;2024-01-27T10:21:11;1.30;99.90
12726;DHT22;6427;49.754;6.106;2024-01-27T10:23:28;1.30;99.90
12726;DHT22;6427;49.754;6.106;2024-01-27T10:25:56;1.30;99.90
12726;DHT22;6427;49.754;6.106;2024-01-27T10:28:23;1.70;99.90
12726;DHT22;6427;49.754;6.106;2024-01-27T10:30:51;1.70;99.90
12726;DHT22;6427;49.754;6.106;2024-01-27T10:33:19;1.50;99.90
12726;DHT22;6427;49.754;6.106;2024-01-27T10:35:47;1.50;99.90
12726;DHT22;6427;49.754;6.106;2024-01-27T10:38:14;1.50;99.90
12726;DHT22;6427;49.754;6.106;2024-01-27T10:40:42;1.50;99.90
12726;DHT22;6427;49.754;6.106;2024-01-27T10:43:10;1.70;99.90
12726;DHT22;6427;49.754;6.106;2024-01-27T10:45:38;1.70;99.90
12726;DHT22;6427;49.754;6.106;2024-01-27T10:48:06;1.60;99.90
12726;DHT22;6427;49.754;6.106;2024-01-27T10:50:36;1.60;99.90
12726;DHT22;6427;49.754;6.106;2024-01-27T10:53:04;1.60;99.90
12726;DHT22;6427;49.754;6.106;2024-01-27T10:55:32;1.60;99.90
12726;DHT22;6427;49.754;6.106;2024-01-27T10:57:59;1.90;99.90
12726;DHT22;6427;49.754;6.106;2024-01-27T11:00:27;1.90;99.90
12726;DHT22;6427;49.754;6.106;2024-01-27T11:02:57;2.20;99.90
12726;DHT22;6427;49.754;6.106;2024-01-27T11:05:23;2.20;99.90
12726;DHT22;6427;49.754;6.106;2024-01-27T11:07:50;2.20;99.90
12726;DHT22;6427;49.754;6.106;2024-01-27T11:10:18;2.20;99.90
12726;DHT22;6427;49.754;6.106;2024-01-27T11:12:46;2.20;99.90
12726;DHT22;6427;49.754;6.106;2024-01-27T11:15:13;2.20;99.90
12726;DHT22;6427;49.754;6.106;2024-01-27T11:17:41;2.30;99.90
12726;DHT22;6427;49.754;6.106;2024-01-27T11:20:10;2.30;99.90
12726;DHT22;6427;49.754;6.106;2024-01-27T11:22:40;2.30;99.90
12726;DHT22;6427;49.754;6.106;2024-01-27T11:27:40;2.70;99.90
12726;DHT22;6427;49.754;6.106;2024-01-27T11:30:23;2.70;99.90
12726;DHT22;6427;49.754;6.106;2024-01-27T11:32:36;2.70;99.90
12726;DHT22;6427;49.754;6.106;2024-01-27T11:35:04;3.10;99.90
12726;DHT22;6427;49.754;6.106;2024-01-27T11:37:31;3.10;99.90
12726;DHT22;6427;49.754;6.106;2024-01-27T11:40:05;3.00;99.90
12726;DHT22;6427;49.754;6.106;2024-01-27T11:42:33;3.00;99.90
12726;DHT22;6427;49.754;6.106;2024-01-27T11:45:01;3.00;99.90
12726;DHT22;6427;49.754;6.106;2024-01-27T11:47:28;3.00;99.90
12726;DHT22;6427;49.754;6.106;2024-01-27T11:49:56;3.00;99.90
12726;DHT22;6427;49.754;6.106;2024-01-27T11:52:24;3.20;99.90
12726;DHT22;6427;49.754;6.106;2024-01-27T11:54:58;3.20;99.90
12726;DHT22;6427;49.754;6.106;2024-01-27T11:57:26;3.30;99.90
12726;DHT22;6427;49.754;6.106;2024-01-27T11:59:54;3.30;99.90
12726;DHT22;6427;49.754;6.106;2024-01-27T12:02:21;3.40;99.90
12726;DHT22;6427;49.754;6.106;2024-01-27T12:04:49;3.50;99.90
12726;DHT22;6427;49.754;6.106;2024-01-27T12:07:17;3.70;99.90
12726;DHT22;6427;49.754;6.106;2024-01-27T12:09:51;3.70;99.90
12726;DHT22;6427;49.754;6.106;2024-01-27T12:12:19;3.90;99.90
12726;DHT22;6427;49.754;6.106;2024-01-27T12:14:48;3.90;99.90
12726;DHT22;6427;49.754;6.106;2024-01-27T12:17:14;4.10;99.90
12726;DHT22;6427;49.754;6.106;2024-01-27T12:19:48;4.50;99.90
12726;DHT22;6427;49.754;6.106;2024-01-27T12:22:25;4.60;99.90
12726;DHT22;6427;49.754;6.106;2024-01-27T12:24:53;4.60;99.90
12726;DHT22;6427;49.754;6.106;2024-01-27T12:27:21;4.60;99.90
12726;DHT22;6427;49.754;6.106;2024-01-27T12:29:48;4.70;99.90
12726;DHT22;6427;49.754;6.106;2024-01-27T12:32:16;4.70;99.90
12726;DHT22;6427;49.754;6.106;2024-01-27T12:34:44;5.30;99.90
12726;DHT22;6427;49.754;6.106;2024-01-27T12:37:15;5.20;99.90
12726;DHT22;6427;49.754;6.106;2024-01-27T12:39:43;5.30;99.90
12726;DHT22;6427;49.754;6.106;2024-01-27T12:42:10;5.30;99.90
12726;DHT22;6427;49.754;6.106;2024-01-27T12:44:38;5.40;99.90
12726;DHT22;6427;49.754;6.106;2024-01-27T12:47:06;5.40;99.90
12726;DHT22;6427;49.754;6.106;2024-01-27T12:49:34;5.40;99.90
12726;DHT22;6427;49.754;6.106;2024-01-27T12:52:01;5.50;99.90
12726;DHT22;6427;49.754;6.106;2024-01-27T12:54:29;5.50;99.90
12726;DHT22;6427;49.754;6.106;2024-01-27T12:56:57;5.60;99.90
12726;DHT22;6427;49.754;6.106;2024-01-27T12:59:25;5.60;99.90
12726;DHT22;6427;49.754;6.106;2024-01-27T13:01:53;6.10;99.90
12726;DHT22;6427;49.754;6.106;2024-01-27T13:04:21;6.10;99.90
12726;DHT22;6427;49.754;6.106;2024-01-27T13:06:48;6.20;99.90
12726;DHT22;6427;49.754;6.106;2024-01-27T13:09:16;6.20;99.90
12726;DHT22;6427;49.754;6.106;2024-01-27T13:11:43;6.20;99.90
12726;DHT22;6427;49.754;6.106;2024-01-27T13:14:11;6.30;99.90
12726;DHT22;6427;49.754;6.106;2024-01-27T13:16:39;6.40;99.90
12726;DHT22;6427;49.754;6.106;2024-01-27T13:19:06;6.40;99.90
12726;DHT22;6427;49.754;6.106;2024-01-27T13:21:34;6.50;99.90
12726;DHT22;6427;49.754;6.106;2024-01-27T13:24:01;6.60;99.90
12726;DHT22;6427;49.754;6.106;2024-01-27T13:26:30;6.80;99.90
12726;DHT22;6427;49.754;6.106;2024-01-27T13:28:57;6.70;99.90
12726;DHT22;6427;49.754;6.106;2024-01-27T13:31:25;6.80;99.90
12726;DHT22;6427;49.754;6.106;2024-01-27T13:33:53;6.90;99.90
12726;DHT22;6427;49.754;6.106;2024-01-27T13:36:20;7.00;99.90
12726;DHT22;6427;49.754;6.106;2024-01-27T13:38:49;7.10;99.90
12726;DHT22;6427;49.754;6.106;2024-01-27T13:41:17;7.10;99.90
12726;DHT22;6427;49.754;6.106;2024-01-27T13:43:44;7.20;99.90
12726;DHT22;6427;49.754;6.106;2024-01-27T13:46:12;7.20;99.90
12726;DHT22;6427;49.754;6.106;2024-01-27T13:48:40;7.30;99.90
12726;DHT22;6427;49.754;6.106;2024-01-27T13:51:08;7.30;99.90
12726;DHT22;6427;49.754;6.106;2024-01-27T13:53:36;7.40;99.90
12726;DHT22;6427;49.754;6.106;2024-01-27T13:56:03;7.70;99.90
12726;DHT22;6427;49.754;6.106;2024-01-27T13:58:31;7.70;99.90
12726;DHT22;6427;49.754;6.106;2024-01-27T14:00:58;7.70;99.90
12726;DHT22;6427;49.754;6.106;2024-01-27T14:03:26;7.80;99.90
12726;DHT22;6427;49.754;6.106;2024-01-27T14:05:54;7.90;99.90
12726;DHT22;6427;49.754;6.106;2024-01-27T14:08:22;7.80;99.90
12726;DHT22;6427;49.754;6.106;2024-01-27T14:10:49;7.90;99.90
12726;DHT22;6427;49.754;6.106;2024-01-27T14:13:17;7.90;99.90
12726;DHT22;6427;49.754;6.106;2024-01-27T14:15:45;7.90;99.90
12726;DHT22;6427;49.754;6.106;2024-01-27T14:18:12;7.90;99.90
12726;DHT22;6427;49.754;6.106;2024-01-27T14:20:41;8.30;99.90
12726;DHT22;6427;49.754;6.106;2024-01-27T14:23:08;8.30;99.90
12726;DHT22;6427;49.754;6.106;2024-01-27T14:25:37;8.60;99.90
12726;DHT22;6427;49.754;6.106;2024-01-27T14:28:04;8.60;99.90
12726;DHT22;6427;49.754;6.106;2024-01-27T14:30:32;8.50;99.90
12726;DHT22;6427;49.754;6.106;2024-01-27T14:32:59;8.40;99.90
12726;DHT22;6427;49.754;6.106;2024-01-27T14:35:28;8.30;99.90
12726;DHT22;6427;49.754;6.106;2024-01-27T14:37:56;8.30;99.90
12726;DHT22;6427;49.754;6.106;2024-01-27T14:40:24;8.20;99.90
12726;DHT22;6427;49.754;6.106;2024-01-27T14:42:53;8.20;99.90
12726;DHT22;6427;49.754;6.106;2024-01-27T14:45:20;8.20;99.90
12726;DHT22;6427;49.754;6.106;2024-01-27T14:47:49;8.60;99.90
12726;DHT22;6427;49.754;6.106;2024-01-27T14:50:16;8.60;99.90
12726;DHT22;6427;49.754;6.106;2024-01-27T14:52:44;8.50;99.90
12726;DHT22;6427;49.754;6.106;2024-01-27T14:55:11;8.80;99.90
12726;DHT22;6427;49.754;6.106;2024-01-27T14:57:39;8.70;99.90
12726;DHT22;6427;49.754;6.106;2024-01-27T15:00:07;8.60;99.90
12726;DHT22;6427;49.754;6.106;2024-01-27T15:02:35;8.60;99.90
12726;DHT22;6427;49.754;6.106;2024-01-27T15:05:02;8.50;99.90
12726;DHT22;6427;49.754;6.106;2024-01-27T15:07:30;8.50;99.90
12726;DHT22;6427;49.754;6.106;2024-01-27T15:09:58;8.80;99.90
12726;DHT22;6427;49.754;6.106;2024-01-27T15:12:26;8.90;99.90
12726;DHT22;6427;49.754;6.106;2024-01-27T15:14:54;8.80;99.90
12726;DHT22;6427;49.754;6.106;2024-01-27T15:17:21;9.10;99.90
12726;DHT22;6427;49.754;6.106;2024-01-27T15:19:49;8.90;99.90
12726;DHT22;6427;49.754;6.106;2024-01-27T15:22:16;8.80;99.90
12726;DHT22;6427;49.754;6.106;2024-01-27T15:24:45;8.60;99.90
12726;DHT22;6427;49.754;6.106;2024-01-27T15:27:12;8.60;99.90
12726;DHT22;6427;49.754;6.106;2024-01-27T15:29:41;8.50;99.90
12726;DHT22;6427;49.754;6.106;2024-01-27T15:32:08;8.50;99.90
12726;DHT22;6427;49.754;6.106;2024-01-27T15:34:36;8.40;99.90
12726;DHT22;6427;49.754;6.106;2024-01-27T15:37:03;8.70;99.90
12726;DHT22;6427;49.754;6.106;2024-01-27T15:39:31;8.60;99.90
12726;DHT22;6427;49.754;6.106;2024-01-27T15:41:59;8.50;99.90
12726;DHT22;6427;49.754;6.106;2024-01-27T15:44:26;8.40;99.90
12726;DHT22;6427;49.754;6.106;2024-01-27T15:46:54;8.30;99.90
12726;DHT22;6427;49.754;6.106;2024-01-27T15:49:22;8.30;99.90
12726;DHT22;6427;49.754;6.106;2024-01-27T15:51:49;8.60;99.90
12726;DHT22;6427;49.754;6.106;2024-01-27T15:54:17;8.50;99.90
12726;DHT22;6427;49.754;6.106;2024-01-27T15:56:44;8.30;99.90
12726;DHT22;6427;49.754;6.106;2024-01-27T15:59:13;8.10;99.90
12726;DHT22;6427;49.754;6.106;2024-01-27T16:01:43;8.10;99.90
12726;DHT22;6427;49.754;6.106;2024-01-27T16:04:10;8.00;99.90
12726;DHT22;6427;49.754;6.106;2024-01-27T16:06:38;7.90;99.90
12726;DHT22;6427;49.754;6.106;2024-01-27T16:09:06;8.00;99.90
12726;DHT22;6427;49.754;6.106;2024-01-27T16:11:34;8.10;99.90